»·PEaware :: N2PD KBFL-KTOA

N2PD :: KBFL-KTOA

FLIGHT INFORMATION

Flight Status: Arrived
Operator: Privately registered:
United States
More flights under this callsign
Pilot: Daniel P. (20187)
Aircraft: SOCATA TBM-900
(TBM9)
More flights by this aircraft type
Origin: KBFL Meadows
United States
Destination: KTOA Zamperini
United States
More flights between these airports :: More routes between these airports
Route: +MEADO3 LHS V459 SLI
File this flight plan on PilotEdge
Remarks:
Altitude:
(Current/Filed)
15,000ft
Speed:
(Current/Filed)
200kts
Departed: 09-Nov-19 10:18 AM
Arrived: 09-Nov-19 10:54 AM
Distance/Time
Traveled:
105nm/0:36
Distance/Time
To Go:
Arrived

Flight Plot

Page will automatically refresh every two minutes.

Flight plan parsing failed; only flown route is shown


Map Options




Map Legend


Flown Route
Filed Route
Departure Airport
Arrival Airport
Navaid (VOR, NDB)
Fix

Horizontal Profiles

Position Reports

Time Latitude Longitude Heading Altitude Ground
Speed
09-Nov-19 09:59 35.435364 -119.052063 174 501ft 0kts
09-Nov-19 10:00 35.435364 -119.052063 174 501ft 0kts
09-Nov-19 10:01 35.435364 -119.052063 174 501ft 0kts
09-Nov-19 10:02 35.435364 -119.052063 174 501ft 0kts
09-Nov-19 10:03 35.435364 -119.052063 174 501ft 0kts
09-Nov-19 10:04 35.435364 -119.052063 174 501ft 0kts
09-Nov-19 10:05 35.435364 -119.052063 174 501ft 0kts
09-Nov-19 10:06 35.435364 -119.052063 174 501ft 0kts
09-Nov-19 10:07 35.435364 -119.052063 174 501ft 0kts
09-Nov-19 10:08 35.435364 -119.052063 174 501ft 0kts
09-Nov-19 10:09 35.435364 -119.052063 174 501ft 0kts
09-Nov-19 10:10 35.435364 -119.052063 174 501ft 0kts
09-Nov-19 10:11 35.434953 -119.052849 267 497ft 11kts
09-Nov-19 10:12 35.433640 -119.053675 134 492ft 12kts
09-Nov-19 10:13 35.430351 -119.049761 134 490ft 17kts
09-Nov-19 10:14 35.426369 -119.044934 135 481ft 14kts
09-Nov-19 10:15 35.425470 -119.045456 270 477ft 9kts
09-Nov-19 10:16 35.425784 -119.046440 315 477ft 4kts
09-Nov-19 10:17 35.446065 -119.071606 313 1021ft 158kts
09-Nov-19 10:18 35.482103 -119.117244 313 2185ft 182kts
09-Nov-19 10:19 35.516632 -119.160470 313 3858ft 166kts
09-Nov-19 10:20 35.521538 -119.210537 197 4442ft 199kts
09-Nov-19 10:21 35.475426 -119.180779 142 6178ft 191kts
09-Nov-19 10:22 35.432576 -119.142595 142 7758ft 197kts
09-Nov-19 10:23 35.386767 -119.101392 142 9103ft 209kts
09-Nov-19 10:24 35.339159 -119.058473 142 10189ft 220kts
09-Nov-19 10:25 35.288704 -119.012896 142 11021ft 227kts
09-Nov-19 10:26 35.237568 -118.966663 142 11827ft 229kts
09-Nov-19 10:27 35.186270 -118.920144 142 12628ft 228kts
09-Nov-19 10:28 35.133963 -118.872889 142 13448ft 235kts
09-Nov-19 10:29 35.080450 -118.824830 142 14260ft 238kts
09-Nov-19 10:30 35.026534 -118.776741 142 14966ft 244kts
09-Nov-19 10:31 34.968881 -118.725124 141 14967ft 263kts
09-Nov-19 10:32 34.907174 -118.675724 158 14969ft 269kts
09-Nov-19 10:33 34.835953 -118.644294 158 14963ft 272kts
09-Nov-19 10:34 34.764745 -118.612907 158 14962ft 272kts
09-Nov-19 10:35 34.693592 -118.581602 158 14962ft 272kts
09-Nov-19 10:36 34.624955 -118.542876 152 14962ft 271kts
09-Nov-19 10:37 34.557269 -118.503218 153 13858ft 267kts
09-Nov-19 10:38 34.491124 -118.464515 153 13103ft 262kts
09-Nov-19 10:39 34.424509 -118.425645 153 13101ft 266kts
09-Nov-19 10:40 34.357262 -118.386447 153 13100ft 268kts
09-Nov-19 10:41 34.290734 -118.347744 154 13100ft 268kts
09-Nov-19 10:42 34.223075 -118.308450 154 13094ft 269kts
09-Nov-19 10:43 34.155272 -118.269148 154 13040ft 269kts
09-Nov-19 10:44 34.087294 -118.229811 154 12985ft 270kts
09-Nov-19 10:45 34.015081 -118.228451 191 12049ft 260kts
09-Nov-19 10:46 33.945177 -118.245541 183 10420ft 252kts
09-Nov-19 10:47 33.875326 -118.249588 186 8814ft 249kts
09-Nov-19 10:48 33.807562 -118.267620 191 7206ft 242kts
09-Nov-19 10:49 33.744517 -118.284202 191 5558ft 223kts
09-Nov-19 10:50 33.694411 -118.264808 103 4194ft 203kts
09-Nov-19 10:52 33.733131 -118.247800 334 2733ft 194kts
09-Nov-19 10:53 33.771134 -118.290265 309 1101ft 154kts
09-Nov-19 10:54 33.790582 -118.317527 316 113ft 36kts
09-Nov-19 10:55 33.790889 -118.317871 319 111ft 0kts

Navigation Log

Ident Type
Flight plan parsing failed, navigation log unavailable